Kuala Terengganu, Malaysia
Current Conditions -  °F | °C
As of 2:00 AM on Friday 31 Oct 2014 (Local Time) from WMKN Reporting Station
Light Rain Light Rain  
Wind Chill: 79°   Ceiling: 24000
Heat Index: 83°   Visibility: 6mi
Dew Point: 77°   Wind: 3mph
Humidity: 94%   Direction: 280°W
Pressure: 29.8"   Gusts: NA
Location:  5.33°N, 103.14°E
Report Text: WMKN 301800Z 28003KT 9000 -RA FEW008 SCT024 OVC240 26/25 Q1009
Loading
Personal Weather Stations






























Interactive Weather Map
Tropical Storm Tracking
New forecast layout! Learn more

10-Day Weather Forecast

Advertisements
Track Severe Weather on mobile